Time;durP1;ratioP1;P1;durP2;ratioP2;P2;SDS_P1;SDS_P2;PMS_P1;PMS_P2;Temp;Humidity;BMP_temperature;BMP_pressure;BME280_temperature;BME280_humidity;BME280_pressure;Samples;Min_cycle;Max_cycle;Signal;HPM_P1;HPM_P2
2021/03/24 00:00:38;;;;;;;28.20;14.20;;;4.60;99.90;;;4.31;88.96;102008.94;4168609;28;20444;-74
2021/03/24 00:02:39;;;;;;;26.38;13.68;;;4.60;99.90;;;4.30;88.38;102008.09;4170330;28;20029;-74
2021/03/24 00:04:40;;;;;;;28.05;14.88;;;4.60;99.90;;;4.45;89.05;102016.84;4165718;28;20041;-74
2021/03/24 00:06:42;;;;;;;24.73;15.63;;;4.60;99.90;;;4.40;87.94;102022.34;4152274;28;20032;-74
2021/03/24 00:08:43;;;;;;;26.13;13.15;;;4.60;99.90;;;4.38;86.82;102008.53;4152240;28;20033;-74
2021/03/24 00:10:44;;;;;;;21.73;12.80;;;4.60;99.90;;;4.38;86.51;102021.59;4134776;28;20015;-74
2021/03/24 00:12:45;;;;;;;20.75;11.63;;;4.60;99.90;;;4.34;86.68;102017.44;4152213;28;20108;-74
2021/03/24 00:14:46;;;;;;;24.20;13.23;;;4.60;99.90;;;4.28;87.70;102020.41;4152285;28;20026;-74
2021/03/24 00:16:48;;;;;;;24.15;12.57;;;4.50;99.90;;;4.21;88.60;102019.03;4152003;28;20084;-74
2021/03/24 00:18:50;;;;;;;24.67;14.02;;;4.60;99.90;;;4.31;88.80;102019.38;4152371;28;20064;-74
2021/03/24 00:20:51;;;;;;;22.02;13.13;;;4.60;99.90;;;4.39;88.58;102015.41;4134750;28;20053;-74
2021/03/24 00:22:53;;;;;;;24.48;13.18;;;4.60;99.90;;;4.37;88.82;102006.00;4152287;28;20051;-74
2021/03/24 00:24:54;;;;;;;20.92;13.20;;;4.60;99.90;;;4.44;88.87;102002.97;4152021;28;20030;-74
2021/03/24 00:26:55;;;;;;;25.35;12.73;;;4.70;99.90;;;4.49;89.33;101997.47;4152283;28;20511;-74
2021/03/24 00:28:56;;;;;;;22.83;13.18;;;4.70;99.90;;;4.54;88.32;101994.59;4152316;28;20026;-74
2021/03/24 00:30:57;;;;;;;23.08;12.48;;;4.70;99.90;;;4.65;87.28;101997.44;4134818;28;20029;-74
2021/03/24 00:32:59;;;;;;;31.42;15.18;;;4.80;99.90;;;4.60;87.82;101994.25;4134675;28;20026;-74
2021/03/24 00:34:59;;;;;;;22.52;12.60;;;4.80;99.90;;;4.63;87.79;101994.09;4152244;28;20081;-74
2021/03/24 00:37:00;;;;;;;25.98;13.07;;;4.80;99.90;;;4.56;87.02;101996.19;4152196;28;20034;-74
2021/03/24 00:39:01;;;;;;;22.42;12.02;;;4.80;99.90;;;4.67;85.38;101996.41;4152193;28;20030;-74
2021/03/24 00:41:03;;;;;;;27.20;13.27;;;4.70;99.90;;;4.62;85.54;101995.84;4134325;28;20038;-74
2021/03/24 00:43:05;;;;;;;22.05;12.80;;;4.80;99.90;;;4.56;85.44;101995.34;4152214;28;20034;-74
2021/03/24 00:45:08;;;;;;;26.02;12.65;;;4.70;99.90;;;4.56;84.86;102003.19;4152068;28;20121;-74
2021/03/24 00:47:08;;;;;;;24.67;12.05;;;4.70;99.90;;;4.58;84.83;101996.09;4152034;28;20049;-74
2021/03/24 00:49:09;;;;;;;27.45;13.23;;;4.70;99.90;;;4.45;85.79;101995.94;4151942;28;20025;-74
2021/03/24 00:51:10;;;;;;;22.63;13.98;;;4.70;99.90;;;4.47;85.85;102002.78;4152173;28;20105;-74
2021/03/24 00:53:11;;;;;;;22.75;13.38;;;4.70;99.90;;;4.52;85.32;101996.44;4151979;28;20033;-74
2021/03/24 00:55:14;;;;;;;20.55;12.38;;;4.70;99.90;;;4.52;85.66;102006.91;4151579;28;20049;-74
2021/03/24 00:57:15;;;;;;;23.15;12.73;;;4.70;99.90;;;4.52;86.51;101997.28;4154009;28;20034;-74
2021/03/24 00:59:16;;;;;;;21.98;11.27;;;4.70;99.90;;;4.40;86.28;101983.16;4163039;28;20181;-74
2021/03/24 01:01:17;;;;;;;23.02;11.60;;;4.70;99.90;;;4.54;85.89;101990.19;4134518;28;20117;-74
2021/03/24 01:03:19;;;;;;;23.38;12.77;;;4.70;99.90;;;4.51;86.80;101974.69;4164794;28;20391;-74
2021/03/24 01:05:23;;;;;;;25.40;12.63;;;4.70;99.90;;;4.51;88.51;101990.38;4151802;28;20120;-74
2021/03/24 01:07:24;;;;;;;22.67;13.52;;;4.80;99.90;;;4.36;88.68;101992.06;4150879;28;20041;-74
2021/03/24 01:09:24;;;;;;;23.38;11.70;;;4.70;99.90;;;4.38;87.21;101995.47;4168045;28;20120;-74
2021/03/24 01:11:26;;;;;;;19.65;11.43;;;4.70;99.90;;;4.26;85.35;101984.84;4168182;28;20022;-74
2021/03/24 01:13:27;;;;;;;17.33;11.10;;;4.60;99.90;;;4.07;86.45;101987.63;4168005;28;20057;-74
2021/03/24 01:15:28;;;;;;;19.73;11.65;;;4.50;99.90;;;4.10;87.03;101992.69;4168290;28;20034;-74
2021/03/24 01:17:29;;;;;;;22.83;12.88;;;4.40;99.90;;;4.11;86.86;101986.53;4168224;28;20436;-74
2021/03/24 01:19:30;;;;;;;21.67;11.88;;;4.40;99.90;;;4.10;86.89;101977.00;4168284;28;20075;-74
2021/03/24 01:21:31;;;;;;;23.58;12.10;;;4.40;99.90;;;4.26;86.10;101995.31;4150490;28;20034;-74
2021/03/24 01:23:32;;;;;;;23.02;12.20;;;4.40;99.90;;;4.18;85.46;101987.88;4168202;28;20036;-74
2021/03/24 01:25:33;;;;;;;22.08;12.10;;;4.40;99.90;;;4.14;85.75;101980.31;4167811;28;20025;-74
2021/03/24 01:27:34;;;;;;;21.95;10.50;;;4.30;99.90;;;4.03;87.44;101980.91;4168516;28;20056;-74
2021/03/24 01:29:35;;;;;;;21.67;11.90;;;4.30;99.90;;;4.08;87.97;101978.03;4171307;28;20026;-74
2021/03/24 01:31:36;;;;;;;23.05;11.65;;;4.30;99.90;;;4.08;87.87;101984.09;4171325;28;20048;-74
2021/03/24 01:33:37;;;;;;;19.65;11.95;;;4.30;99.90;;;4.20;86.34;101979.97;4171344;28;20495;-74
2021/03/24 01:35:39;;;;;;;19.88;11.95;;;4.40;99.90;;;4.11;85.93;101983.94;4171180;28;20029;-74
2021/03/24 01:37:41;;;;;;;20.35;11.68;;;4.30;99.90;;;4.12;85.55;101976.94;4171195;28;20484;-74
2021/03/24 01:39:43;;;;;;;19.00;10.95;;;4.30;99.90;;;4.04;85.90;101973.91;4170984;28;20112;-74
2021/03/24 01:41:43;;;;;;;17.00;11.02;;;4.30;99.90;;;4.05;86.48;101976.44;4153564;28;20037;-74
2021/03/24 01:43:45;;;;;;;15.85;10.57;;;4.20;99.90;;;4.06;85.51;101977.28;4171062;28;20029;-74
2021/03/24 01:45:51;;;;;;;15.98;10.02;;;4.20;99.90;;;4.05;84.77;101978.19;4170916;28;20034;-74
2021/03/24 01:47:56;;;;;;;18.95;11.43;;;4.20;99.90;;;4.03;85.79;101977.44;4171025;28;20029;-74
2021/03/24 01:49:57;;;;;;;;;;;4.20;99.90;;;3.37;86.17;101888.00;4171293;28;20029;-74
2021/03/24 01:52:08;;;;;;;17.65;10.90;;;4.20;99.90;;;3.80;86.45;101969.09;4136903;28;19910;-74
2021/03/24 01:54:15;;;;;;;21.88;11.35;;;4.10;99.90;;;4.01;85.29;101972.31;4153133;28;20145;-74
2021/03/24 01:56:17;;;;;;;20.98;11.23;;;4.10;99.90;;;3.82;85.16;101954.19;4153262;28;20049;-74
2021/03/24 01:58:18;;;;;;;20.08;10.57;;;4.10;99.90;;;3.84;84.87;101969.78;4153253;28;20057;-74
2021/03/24 02:00:34;;;;;;;16.05;10.32;;;4.10;99.90;;;3.71;85.35;101961.75;4122962;28;20051;-74
2021/03/24 02:02:37;;;;;;;18.00;10.77;;;4.00;99.90;;;3.54;86.05;101974.03;4138979;28;20473;-74
2021/03/24 02:04:38;;;;;;;15.32;9.70;;;3.90;99.90;;;3.56;86.18;101969.56;4168192;28;20034;-74
2021/03/24 02:07:16;;;;;;;19.60;10.60;;;3.90;99.90;;;3.58;86.29;101963.34;4154277;28;20048;-74
2021/03/24 02:09:33;;;;;;;19.60;10.02;;;3.90;99.90;;;3.60;85.88;101973.69;4154072;28;20029;-74
2021/03/24 02:12:02;;;;;;;18.02;10.48;;;3.80;99.90;;;3.56;85.67;101969.56;4154186;28;20037;-74
2021/03/24 02:14:21;;;;;;;17.35;9.75;;;3.90;99.90;;;3.62;85.27;101969.22;4154083;28;20481;-74
2021/03/24 02:16:38;;;;;;;20.50;9.90;;;3.80;99.90;;;3.58;85.79;101970.34;4138211;28;20030;-74
2021/03/24 02:18:41;;;;;;;13.70;9.27;;;3.80;99.90;;;3.33;86.15;101935.09;4142210;28;20038;-74
2021/03/24 02:20:58;;;;;;;17.67;9.40;;;3.80;99.90;;;3.35;87.57;101959.34;4170447;28;20033;-74
2021/03/24 02:23:16;;;;;;;17.98;9.55;;;3.70;99.90;;;3.42;87.34;101953.78;4153090;28;20030;-74
2021/03/24 02:25:27;;;;;;;19.75;9.57;;;3.70;99.90;;;3.39;86.98;101954.81;4170233;28;20032;-74
2021/03/24 02:27:33;;;;;;;16.02;10.40;;;3.60;99.90;;;3.35;87.27;101959.34;4153523;28;20022;-74
2021/03/24 02:29:40;;;;;;;16.00;8.57;;;3.60;99.90;;;3.42;86.25;101959.84;4152733;28;20165;-74
2021/03/24 02:31:41;;;;;;;17.48;10.15;;;3.70;99.90;;;3.44;86.48;101957.16;4152969;28;20026;-74
2021/03/24 02:33:44;;;;;;;15.23;9.40;;;3.60;99.90;;;3.43;86.41;101963.31;4152689;28;20029;-74
2021/03/24 02:35:51;;;;;;;15.18;10.27;;;3.60;99.90;;;3.33;86.92;101955.13;4152556;28;20034;-74
2021/03/24 02:37:55;;;;;;;20.33;11.50;;;3.60;99.90;;;3.34;87.81;101954.22;4152947;28;20037;-74
2021/03/24 02:39:58;;;;;;;14.45;9.40;;;3.60;99.90;;;3.32;87.52;101941.22;4152348;28;20034;-74
2021/03/24 02:42:02;;;;;;;19.85;10.68;;;3.60;99.90;;;3.44;86.85;101941.50;4152673;28;20077;-74
2021/03/24 02:44:04;;;;;;;20.27;9.68;;;3.60;99.90;;;3.31;88.18;101933.50;4152584;28;20034;-74
2021/03/24 02:46:08;;;;;;;13.48;9.48;;;3.60;99.90;;;3.30;88.05;101939.63;4136129;28;20034;-74
2021/03/24 02:48:22;;;;;;;22.67;10.25;;;3.60;99.90;;;3.39;86.23;101944.38;4152560;28;20028;-74
2021/03/24 02:50:23;;;;;;;19.20;10.27;;;3.60;99.90;;;3.39;86.39;101938.31;4153262;28;20029;-74
2021/03/24 02:52:25;;;;;;;16.58;11.43;;;3.60;99.90;;;3.40;85.68;101945.22;4169766;28;20068;-74
2021/03/24 02:54:30;;;;;;;19.48;10.75;;;3.60;99.90;;;3.39;85.54;101946.13;4152003;28;20559;-74
2021/03/24 02:56:31;;;;;;;17.05;11.10;;;3.60;99.90;;;3.30;87.10;101950.91;4152344;28;20034;-74
2021/03/24 02:58:33;;;;;;;19.23;10.57;;;3.50;99.90;;;3.39;86.32;101938.31;4152267;28;20022;-74
2021/03/24 03:00:35;;;;;;;17.33;9.30;;;3.60;99.90;;;3.33;86.53;101944.69;4136199;28;20037;-74
2021/03/24 03:02:40;;;;;;;18.23;10.15;;;3.60;99.90;;;3.27;86.35;101951.06;4138663;28;20516;-74
2021/03/24 03:04:51;;;;;;;19.15;10.55;;;3.60;99.90;;;3.26;86.48;101954.59;4158285;28;20451;-74
2021/03/24 03:06:57;;;;;;;16.00;10.07;;;3.50;99.90;;;3.20;87.62;101948.84;4153582;28;20389;-74
2021/03/24 03:10:10;;;;;;;17.55;10.63;;;3.50;99.90;;;3.18;86.85;101948.94;4153346;28;20087;-74
2021/03/24 03:12:28;;;;;;;19.50;10.20;;;3.50;99.90;;;3.21;85.89;101950.53;4117427;28;20038;-74
2021/03/24 03:14:49;;;;;;;19.42;10.95;;;3.50;99.90;;;3.22;85.78;101953.09;4152036;28;20113;-74
2021/03/24 03:17:03;;;;;;;16.33;9.70;;;3.50;99.90;;;3.20;84.03;101949.69;4152154;28;20026;-74
2021/03/24 03:19:20;;;;;;;14.18;8.52;;;3.40;99.90;;;3.03;85.24;101957.56;4152172;28;20084;-74
2021/03/24 03:21:52;;;;;;;15.13;9.68;;;3.40;99.90;;;2.94;87.05;101942.38;4153131;28;20095;-74
2021/03/24 03:23:55;;;;;;;14.15;9.45;;;3.40;99.90;;;3.01;87.66;101953.34;4164846;28;20048;-74
2021/03/24 03:26:21;;;;;;;14.27;9.07;;;3.30;99.90;;;3.17;86.61;101960.28;4151685;28;20026;-74
2021/03/24 03:28:24;;;;;;;16.77;9.43;;;3.40;99.90;;;3.21;86.09;101956.59;4151819;28;20113;-74
2021/03/24 03:30:32;;;;;;;17.25;9.43;;;3.50;99.90;;;3.29;85.12;101958.81;4153051;28;20030;-74
2021/03/24 03:32:33;;;;;;;13.77;8.48;;;3.60;99.90;;;3.30;85.64;101953.53;4152909;28;20030;-74
2021/03/24 03:34:36;;;;;;;16.52;8.52;;;3.60;99.90;;;3.25;85.18;101942.50;4151682;28;20041;-74
2021/03/24 03:36:41;;;;;;;15.52;9.55;;;3.70;99.90;;;3.40;87.32;101945.22;4151810;28;20029;-74
2021/03/24 03:38:45;;;;;;;18.52;9.77;;;3.80;99.90;;;3.50;85.65;101946.41;4151871;28;20516;-74
2021/03/24 03:40:47;;;;;;;20.40;11.15;;;3.80;99.90;;;3.42;84.61;101949.44;4152659;28;20034;-74
2021/03/24 03:42:50;;;;;;;16.42;9.45;;;3.70;99.90;;;3.29;85.28;101951.81;4152957;28;20029;-74
2021/03/24 03:44:55;;;;;;;14.82;10.20;;;3.70;99.90;;;3.15;85.42;101946.50;4151656;28;20470;-74
2021/03/24 03:47:07;;;;;;;15.38;9.82;;;3.60;99.90;;;3.11;86.39;101950.16;4152951;28;20385;-74
2021/03/24 03:49:08;;;;;;;18.73;10.80;;;3.50;99.90;;;3.12;85.84;101945.81;4152632;28;20408;-74
2021/03/24 03:51:21;;;;;;;20.90;11.40;;;3.50;99.90;;;2.93;87.63;101940.69;4152243;28;20030;-74
2021/03/24 03:53:35;;;;;;;18.58;11.18;;;3.40;99.90;;;3.04;88.34;101938.38;4151528;28;20034;-74
2021/03/24 03:56:15;;;;;;;19.85;10.60;;;3.40;99.90;;;3.15;87.51;101951.72;4151160;28;20056;-74
2021/03/24 03:58:43;;;;;;;15.32;10.73;;;3.40;99.90;;;3.03;87.05;101941.06;4152636;28;20080;-74
2021/03/24 04:01:20;;;;;;;18.52;10.57;;;3.40;99.90;;;3.05;87.99;101960.91;4147350;28;20564;-74
2021/03/24 04:03:32;;;;;;;15.98;10.18;;;3.30;99.90;;;2.93;88.04;101934.66;4148678;28;20033;-74
2021/03/24 04:05:58;;;;;;;19.33;10.73;;;3.30;99.90;;;2.97;88.27;101942.22;4138421;28;20065;-74
2021/03/24 04:08:13;;;;;;;17.50;10.18;;;3.20;99.90;;;2.97;88.06;101942.22;4136289;28;20554;-74
2021/03/24 04:10:14;;;;;;;17.15;10.27;;;3.30;99.90;;;3.00;88.34;101944.66;4119265;28;20105;-74
2021/03/24 04:12:17;;;;;;;22.15;11.30;;;3.30;99.90;;;2.91;88.99;101932.09;4135110;28;20061;-74
2021/03/24 04:14:24;;;;;;;24.20;11.23;;;3.30;99.90;;;3.00;88.13;101939.47;4135128;28;20026;-74
2021/03/24 04:16:26;;;;;;;17.88;11.20;;;3.30;99.90;;;3.00;88.37;101942.06;4136198;28;20113;-74
2021/03/24 04:18:58;;;;;;;19.30;10.77;;;3.30;99.90;;;3.00;88.31;101936.84;4135026;28;20742;-74
2021/03/24 04:21:01;;;;;;;24.85;11.73;;;3.30;99.90;;;2.95;88.47;101931.03;4136120;28;20126;-74
2021/03/24 04:23:06;;;;;;;17.67;10.70;;;3.20;99.90;;;3.02;87.36;101935.00;4134855;28;20030;-74
2021/03/24 04:25:12;;;;;;;19.40;10.23;;;3.30;99.90;;;3.04;87.03;101937.53;4134730;28;20465;-74
2021/03/24 04:27:15;;;;;;;19.77;10.25;;;3.30;99.90;;;2.92;86.32;101933.81;4134840;28;20178;-74
2021/03/24 04:29:50;;;;;;;19.00;11.02;;;3.20;99.90;;;2.85;85.18;101931.56;4134868;28;20109;-74
2021/03/24 04:31:56;;;;;;;19.40;9.75;;;3.10;99.90;;;2.73;86.82;101920.00;4134996;28;20037;-74
2021/03/24 04:33:57;;;;;;;18.40;10.82;;;3.10;99.90;;;2.95;86.61;101927.59;4134828;28;20033;-74
2021/03/24 04:36:14;;;;;;;17.65;9.85;;;3.10;99.90;;;2.95;85.46;101920.63;4134773;28;20517;-74
2021/03/24 04:38:39;;;;;;;16.05;10.20;;;3.20;99.90;;;2.81;85.77;101930.88;4134765;28;20406;-74
2021/03/24 04:40:55;;;;;;;17.38;9.65;;;3.20;99.90;;;2.58;86.29;101934.63;4134634;28;20038;-74
2021/03/24 04:43:16;;;;;;;17.17;10.25;;;3.10;99.90;;;2.54;87.73;101929.69;4136007;28;20089;-74
2021/03/24 04:45:28;;;;;;;19.30;10.30;;;2.90;99.90;;;2.60;87.75;101943.22;4134608;28;20527;-74
2021/03/24 04:47:33;;;;;;;16.50;10.13;;;2.90;99.90;;;2.60;87.49;101937.16;4135781;28;20081;-74
2021/03/24 04:49:54;;;;;;;13.35;9.88;;;2.90;99.90;;;2.55;87.64;101939.16;4134728;28;20592;-74
2021/03/24 04:51:57;;;;;;;19.40;11.65;;;3.00;99.90;;;2.76;87.15;101943.31;4134749;28;20112;-74
2021/03/24 04:54:24;;;;;;;17.90;10.50;;;3.00;99.90;;;2.84;86.69;101946.34;4134441;28;20054;-74
2021/03/24 04:56:26;;;;;;;18.05;10.48;;;3.00;99.90;;;2.82;86.19;101936.94;4135887;28;20052;-74
2021/03/24 04:58:37;;;;;;;16.38;9.98;;;3.00;99.90;;;2.81;85.96;101930.88;4146389;28;20037;-74
2021/03/24 05:00:45;;;;;;;26.90;12.07;;;3.00;99.90;;;2.73;86.25;101930.44;4147207;28;20081;-74
2021/03/24 05:02:54;;;;;;;16.73;10.40;;;3.00;99.90;;;2.70;86.87;101922.75;4141132;28;20037;-74
2021/03/24 05:05:15;;;;;;;21.38;11.80;;;3.00;99.90;;;2.70;88.17;101939.25;4158646;28;20040;-74
2021/03/24 05:07:43;;;;;;;21.58;10.75;;;3.00;99.90;;;2.56;87.14;101935.63;4154280;28;20061;-74
2021/03/24 05:09:46;;;;;;;16.88;10.70;;;3.00;99.90;;;2.48;88.03;101948.22;4155221;28;20026;-74
2021/03/24 05:12:22;;;;;;;20.25;10.15;;;2.90;99.90;;;2.47;88.92;101936.09;4155224;28;20055;-74
2021/03/24 05:14:59;;;;;;;21.13;11.10;;;2.90;99.90;;;2.64;87.72;101943.91;4155075;28;20433;-74
2021/03/24 05:17:24;;;;;;;20.73;10.02;;;3.00;99.90;;;2.66;87.41;101949.88;4154713;28;20110;-74
2021/03/24 05:19:28;;;;;;;17.73;10.88;;;3.00;99.90;;;2.68;88.01;101943.69;4153875;28;20022;-74
2021/03/24 05:21:53;;;;;;;16.75;10.35;;;3.00;99.90;;;2.69;87.25;101937.56;4153624;28;20037;-74
2021/03/24 05:23:57;;;;;;;;;;;3.10;99.90;;;2.76;87.70;101933.72;4154122;28;20464;-74
2021/03/24 05:26:26;;;;;;;18.92;11.18;;;3.10;99.90;;;2.70;89.19;101935.78;4154870;28;20291;-74
2021/03/24 05:28:45;;;;;;;21.35;11.50;;;3.10;99.90;;;2.81;88.28;101941.28;4118372;28;20536;-74
2021/03/24 05:30:59;;;;;;;24.92;11.43;;;3.10;99.90;;;2.85;86.80;101942.00;4153659;28;20444;-74
2021/03/24 05:33:26;;;;;;;20.50;10.20;;;3.10;99.90;;;2.54;86.52;101951.31;4153603;28;20033;-74
2021/03/24 05:35:57;;;;;;;17.83;10.05;;;3.00;99.90;;;2.50;87.63;101947.22;4154740;28;20356;-74
2021/03/24 05:38:12;;;;;;;15.85;9.43;;;2.90;99.90;;;2.49;88.27;101939.47;4154697;28;20436;-74
2021/03/24 05:40:25;;;;;;;18.52;10.55;;;2.90;99.90;;;2.58;87.97;101944.22;4137606;28;20524;-74
2021/03/24 05:42:52;;;;;;;17.08;10.10;;;2.90;99.90;;;2.68;88.40;101946.31;4153305;28;20125;-74
2021/03/24 05:45:32;;;;;;;20.40;11.32;;;2.90;99.90;;;2.69;87.46;101945.38;4154568;28;20439;-74
2021/03/24 05:48:10;;;;;;;15.75;10.70;;;2.90;99.90;;;2.62;87.57;101940.53;4153178;28;20415;-74
2021/03/24 05:50:29;;;;;;;21.42;10.90;;;3.00;99.90;;;2.65;87.43;101938.63;4154493;28;20026;-74
2021/03/24 05:52:59;;;;;;;15.90;10.85;;;3.00;99.90;;;2.60;87.50;101938.00;4154260;28;20072;-74
2021/03/24 05:55:25;;;;;;;18.17;11.23;;;2.90;99.90;;;2.52;87.59;101937.56;4158797;28;20191;-74
2021/03/24 05:57:37;;;;;;;;;;;2.90;99.90;;;2.47;87.63;101946.50;4171107;28;20029;-74
2021/03/24 06:00:23;;;;;;;19.30;11.32;;;2.90;99.90;;;2.47;87.56;101947.34;4162230;28;19916;-74
2021/03/24 06:02:39;;;;;;;;;;;2.90;99.90;;;2.42;88.01;101948.50;4154603;28;20169;-74
2021/03/24 06:04:57;;;;;;;16.80;10.50;;;2.80;99.90;;;2.46;87.72;101942.22;4154177;28;19910;-74
2021/03/24 06:07:35;;;;;;;20.00;11.35;;;2.80;99.90;;;2.53;87.25;101943.59;4138127;28;20164;-74
2021/03/24 06:10:28;;;;;;;19.90;11.43;;;2.80;99.90;;;2.53;87.42;101941.00;4153899;28;20033;-74
2021/03/24 06:13:00;;;;;;;21.08;10.77;;;2.80;99.90;;;2.62;86.14;101935.34;4154125;28;20030;-74
2021/03/24 06:15:46;;;;;;;19.42;11.15;;;2.90;99.90;;;2.65;87.88;101941.25;4153302;28;20041;-74
2021/03/24 06:18:05;;;;;;;19.42;11.30;;;2.90;99.90;;;2.73;86.95;101939.09;4154102;28;20397;-74
2021/03/24 06:20:56;;;;;;;25.88;10.93;;;3.00;99.90;;;2.87;85.95;101951.41;4153828;28;20030;-74
2021/03/24 06:23:40;;;;;;;17.88;11.27;;;3.10;99.90;;;2.70;86.22;101952.28;4144675;28;20038;-74
2021/03/24 06:25:45;;;;;;;18.95;11.20;;;3.10;99.90;;;2.70;86.55;101954.88;4146963;28;20040;-74
2021/03/24 06:28:29;;;;;;;17.75;11.18;;;3.00;99.90;;;2.72;85.63;101953.03;4136631;28;20508;-74
2021/03/24 06:31:46;;;;;;;17.45;12.20;;;3.10;99.90;;;2.76;85.03;101959.78;4170231;28;20492;-74
2021/03/24 06:34:13;;;;;;;23.67;12.43;;;3.10;99.90;;;2.72;86.04;101958.25;4103710;29;20063;-74
2021/03/24 06:36:39;;;;;;;28.20;12.77;;;3.10;99.90;;;2.71;86.25;101960.94;4103437;29;20605;-74
2021/03/24 06:39:23;;;;;;;29.17;13.85;;;3.20;99.90;;;2.82;86.17;101968.19;4148306;28;20103;-74
2021/03/24 06:41:44;;;;;;;25.30;13.10;;;3.20;99.90;;;2.77;86.71;101965.84;4129883;28;20042;-74
2021/03/24 06:44:15;;;;;;;28.80;14.85;;;3.30;99.90;;;2.78;87.39;101970.13;4152446;28;20034;-74
2021/03/24 06:46:33;;;;;;;24.75;13.80;;;3.30;99.90;;;2.78;87.32;101968.34;4169998;28;20030;-74
2021/03/24 06:48:49;;;;;;;24.27;13.75;;;3.30;99.90;;;2.76;87.71;101964.16;4153163;28;20033;-74
2021/03/24 06:51:24;;;;;;;22.98;12.50;;;3.30;99.90;;;2.87;86.49;101966.22;4152748;28;20026;-74
2021/03/24 06:53:52;;;;;;;24.13;14.38;;;3.30;99.90;;;2.95;87.53;101971.91;4169917;28;20041;-74
2021/03/24 06:56:49;;;;;;;24.70;13.88;;;3.40;99.90;;;3.04;87.18;101969.66;4169863;28;20079;-74
2021/03/24 06:59:31;;;;;;;24.60;14.07;;;3.50;99.90;;;3.17;86.60;101968.09;4168120;28;20025;-74
2021/03/24 07:02:01;;;;;;;19.58;13.85;;;3.60;99.90;;;3.10;86.67;101969.34;4153395;28;20072;-74
2021/03/24 07:04:36;;;;;;;20.00;13.48;;;3.60;99.90;;;3.30;86.55;101968.31;4169630;28;20077;-74
2021/03/24 07:07:15;;;;;;;18.00;13.07;;;3.70;99.90;;;3.29;86.93;101975.28;4153555;28;20038;-74
2021/03/24 07:09:20;;;;;;;20.13;13.10;;;3.70;99.90;;;3.51;87.28;101963.75;4135594;28;20041;-74
2021/03/24 07:11:51;;;;;;;18.20;13.35;;;3.80;99.90;;;3.69;87.58;101963.63;4153315;28;20503;-74
2021/03/24 07:14:09;;;;;;;21.73;12.85;;;4.00;99.90;;;3.70;87.29;101969.69;4153249;28;20029;-74
2021/03/24 07:16:39;;;;;;;18.52;13.63;;;4.00;99.90;;;3.85;87.31;101967.06;4137417;28;20480;-74
2021/03/24 07:18:45;;;;;;;17.83;12.73;;;4.10;99.90;;;3.80;87.53;101976.06;4135826;28;20034;-74
2021/03/24 07:21:36;;;;;;;20.05;13.45;;;4.20;99.90;;;3.71;86.69;101960.91;4153329;28;20054;-74
2021/03/24 07:24:10;;;;;;;18.85;12.50;;;4.20;99.90;;;3.53;87.26;101983.59;4143308;28;20037;-74
2021/03/24 07:26:49;;;;;;;23.10;14.15;;;4.20;99.90;;;3.68;88.27;101981.94;4168389;28;20029;-74
2021/03/24 07:29:26;;;;;;;18.30;12.93;;;4.20;99.90;;;3.86;88.98;101987.03;4169370;28;20026;-74
2021/03/24 07:31:33;;;;;;;22.83;14.23;;;4.30;99.90;;;4.16;89.33;101984.50;4169240;28;20075;-74
2021/03/24 07:33:46;;;;;;;18.20;13.15;;;4.50;99.90;;;4.11;89.96;101973.50;4169323;28;20049;-74
2021/03/24 07:36:20;;;;;;;18.25;13.00;;;4.70;99.90;;;4.34;90.72;101988.72;4152143;28;20030;-74
2021/03/24 07:38:53;;;;;;;22.15;13.68;;;4.80;99.90;;;4.61;90.19;101990.69;4169210;28;20084;-74
2021/03/24 07:41:26;;;;;;;20.25;13.93;;;5.00;99.90;;;4.80;90.12;101993.94;4154272;28;20038;-75
2021/03/24 07:44:10;;;;;;;20.58;14.10;;;5.20;99.90;;;4.80;91.01;102002.66;4169283;28;20091;-75
2021/03/24 07:46:45;;;;;;;26.33;15.40;;;5.40;99.90;;;5.00;91.83;102001.47;4159688;28;20041;-75
2021/03/24 07:49:33;;;;;;;25.13;14.02;;;5.60;99.90;;;5.25;91.95;102004.34;4169079;28;20056;-74
2021/03/24 07:52:21;;;;;;;20.75;14.07;;;5.90;99.90;;;5.54;91.23;102011.28;4118187;28;20091;-74
2021/03/24 07:54:44;;;;;;;20.23;12.98;;;6.10;99.90;;;5.54;91.50;102000.81;4143598;28;20045;-75
2021/03/24 07:57:04;;;;;;;22.02;13.98;;;6.30;99.90;;;5.79;91.54;102010.63;4153999;28;20084;-74
2021/03/24 07:59:50;;;;;;;21.13;13.20;;;6.50;99.90;;;6.17;90.20;102016.13;4140081;28;20030;-74
2021/03/24 08:02:17;;;;;;;19.77;13.35;;;6.80;99.90;;;6.29;90.33;102020.59;4168723;28;20061;-74
2021/03/24 08:04:57;;;;;;;22.25;14.02;;;7.10;99.90;;;6.48;90.12;102021.09;4133698;28;20041;-74
2021/03/24 08:07:34;;;;;;;24.23;13.55;;;7.20;99.90;;;6.79;90.61;102014.69;4138146;28;20093;-74
2021/03/24 08:10:30;;;;;;;20.85;12.95;;;7.50;99.90;;;6.74;90.63;102006.31;4152492;28;20030;-74
2021/03/24 08:13:14;;;;;;;18.58;13.27;;;7.60;99.90;;;6.77;91.15;102016.59;4152627;28;20037;-74
2021/03/24 08:15:53;;;;;;;19.08;11.48;;;7.60;99.90;;;6.93;90.67;102011.19;4152613;28;20393;-74
2021/03/24 08:18:27;;;;;;;16.17;11.02;;;7.70;99.90;;;7.04;90.93;102019.19;4152448;28;20026;-74
2021/03/24 08:21:01;;;;;;;19.05;12.10;;;7.80;99.90;;;7.10;90.78;102013.53;4152494;28;20091;-74
2021/03/24 08:23:34;;;;;;;22.58;12.93;;;7.90;99.90;;;7.24;91.48;102016.91;4152170;28;20501;-74
2021/03/24 08:26:07;;;;;;;18.20;12.02;;;8.00;99.90;;;7.31;90.42;102030.44;4134863;28;20067;-74
2021/03/24 08:28:46;;;;;;;21.13;12.20;;;8.10;99.90;;;7.37;89.08;102006.41;4136441;28;20121;-74
2021/03/24 08:31:43;;;;;;;20.70;13.60;;;8.30;99.90;;;7.37;89.40;102027.41;4136353;28;20497;-74
2021/03/24 08:34:18;;;;;;;19.02;13.07;;;8.40;99.90;;;7.31;88.73;102034.84;4152184;28;20037;-74
2021/03/24 08:36:34;;;;;;;21.38;12.52;;;8.50;99.90;;;7.48;89.47;102035.41;4152069;28;20037;-74
2021/03/24 08:38:53;;;;;;;20.20;11.77;;;8.60;99.90;;;7.62;89.21;102039.69;4152231;28;20397;-74
2021/03/24 08:41:40;;;;;;;19.45;13.05;;;8.70;99.90;;;7.96;88.14;102038.19;4152084;28;20100;-74
2021/03/24 08:44:10;;;;;;;16.90;11.13;;;8.90;99.90;;;8.16;86.75;102042.88;4152173;28;20034;-74
2021/03/24 08:46:22;;;;;;;20.88;12.25;;;9.10;99.90;;;8.48;85.42;102053.78;4152206;28;20034;-74
2021/03/24 08:48:57;;;;;;;18.02;12.38;;;9.40;99.90;;;8.56;84.99;102048.78;4152186;28;20041;-74
2021/03/24 08:51:44;;;;;;;19.90;11.48;;;9.60;99.90;;;8.72;84.29;102044.91;4139134;28;20026;-74
2021/03/24 08:54:36;;;;;;;17.45;11.98;;;10.10;99.90;;;8.85;85.28;102035.19;4138190;28;20046;-74
2021/03/24 08:57:25;;;;;;;21.27;11.38;;;10.00;99.90;;;8.92;85.46;102045.25;4101984;29;20105;-74
2021/03/24 08:59:47;;;;;;;18.67;11.43;;;10.10;99.90;;;9.14;84.08;102042.72;4149841;28;20453;-74
2021/03/24 09:02:41;;;;;;;18.48;10.30;;;10.30;99.90;;;9.16;84.04;102040.81;4136325;28;20397;-74
2021/03/24 09:05:36;;;;;;;17.92;10.55;;;10.40;99.90;;;9.40;83.79;102045.06;4147257;28;20021;-74
2021/03/24 09:07:59;;;;;;;18.37;11.53;;;10.70;99.90;;;9.43;83.10;102044.84;4168600;28;20026;-74
2021/03/24 09:10:32;;;;;;;11.88;9.68;;;10.80;99.90;;;9.77;83.12;102052.75;4167819;28;20026;-74
2021/03/24 09:12:55;;;;;;;17.63;10.52;;;11.00;99.90;;;9.98;81.48;102054.56;4152973;28;20110;-73
2021/03/24 09:15:29;;;;;;;15.77;9.98;;;11.10;99.90;;;10.10;81.39;102049.28;4151975;28;20060;-73
2021/03/24 09:17:56;;;;;;;14.52;9.02;;;11.30;99.90;;;10.03;81.65;102027.84;4153171;28;20041;-74
2021/03/24 09:20:44;;;;;;;18.10;10.00;;;11.30;99.90;;;10.06;81.63;102037.31;4152476;28;20048;-73
2021/03/24 09:23:36;;;;;;;17.60;11.10;;;11.30;99.90;;;10.10;81.24;102034.31;4144411;28;20068;-74
2021/03/24 09:25:58;;;;;;;16.65;9.25;;;11.30;99.90;;;10.27;81.45;102039.13;4167842;28;20037;-74
2021/03/24 09:27:59;;;;;;;19.80;10.30;;;11.40;99.90;;;10.33;81.40;102040.44;4167860;28;20052;-74
2021/03/24 09:30:53;;;;;;;19.45;11.13;;;11.50;99.90;;;10.46;81.03;102046.38;4168187;28;20450;-74
2021/03/24 09:33:27;;;;;;;17.38;10.48;;;11.60;99.90;;;10.62;80.48;102041.56;4167992;28;20152;-74